createdAt,value
2022-08-22T00:03:29.489Z,0.0
2022-08-22T00:03:59.985Z,0.0
2022-08-22T00:04:33.435Z,0.0
2022-08-22T00:05:05.678Z,0.0
2022-08-22T00:05:36.162Z,0.0
2022-08-22T00:06:06.658Z,0.0
2022-08-22T00:06:37.154Z,0.0
2022-08-22T00:07:07.651Z,0.0
2022-08-22T00:07:38.107Z,0.0
2022-08-22T00:08:08.805Z,0.0
2022-08-22T00:08:39.326Z,0.0
2022-08-22T00:09:09.804Z,0.0
2022-08-22T00:09:40.295Z,0.0
2022-08-22T00:10:10.782Z,0.0
2022-08-22T00:10:46.055Z,0.0
2022-08-22T00:11:16.512Z,0.0
2022-08-22T00:11:46.979Z,0.0
2022-08-22T00:12:17.450Z,0.0
2022-08-22T00:12:47.897Z,0.0
2022-08-22T00:13:18.384Z,0.0
2022-08-22T00:13:48.853Z,0.0
2022-08-22T00:14:30.519Z,0.0
2022-08-22T00:15:01.002Z,0.0
2022-08-22T00:16:02.337Z,0.0
2022-08-22T00:16:32.828Z,0.0
2022-08-22T00:17:03.731Z,0.0
2022-08-22T00:17:34.239Z,0.0
2022-08-22T00:18:05.635Z,0.0
2022-08-22T00:18:36.299Z,0.0
2022-08-22T00:19:06.802Z,0.0
2022-08-22T00:19:37.298Z,0.0
2022-08-22T00:20:07.772Z,0.0
2022-08-22T00:20:38.695Z,0.0
2022-08-22T00:21:09.162Z,0.0
2022-08-22T00:21:39.621Z,0.0
2022-08-22T00:22:12.707Z,0.0
2022-08-22T00:22:43.186Z,0.0
2022-08-22T00:23:13.657Z,0.0
2022-08-22T00:23:44.132Z,0.0
2022-08-22T00:24:14.600Z,0.0
2022-08-22T00:24:45.079Z,0.0
2022-08-22T00:25:22.822Z,0.0
2022-08-22T00:25:56.382Z,0.0
2022-08-22T00:26:26.877Z,0.0
2022-08-22T00:26:57.389Z,0.0
2022-08-22T00:27:27.882Z,0.0
2022-08-22T00:28:05.425Z,0.0
2022-08-22T00:28:35.927Z,0.0
2022-08-22T00:29:06.418Z,0.0
2022-08-22T00:29:38.875Z,0.0
2022-08-22T00:30:09.561Z,0.0
2022-08-22T00:30:40.035Z,0.0
2022-08-22T00:31:10.506Z,0.0
2022-08-22T00:31:40.991Z,0.0
2022-08-22T00:32:11.493Z,0.0
2022-08-22T00:32:42.091Z,0.0
2022-08-22T00:33:12.571Z,0.0
2022-08-22T00:33:43.057Z,0.0
2022-08-22T00:34:13.527Z,0.0
2022-08-22T00:34:43.995Z,0.0
2022-08-22T00:35:14.491Z,0.0
2022-08-22T00:35:45.317Z,0.0
2022-08-22T00:36:15.881Z,0.0
2022-08-22T00:36:47.755Z,0.0
2022-08-22T00:37:19.637Z,0.0
2022-08-22T00:37:50.288Z,0.0
2022-08-22T00:38:20.790Z,0.0
2022-08-22T00:38:51.317Z,0.0
2022-08-22T00:39:21.834Z,0.0
2022-08-22T00:39:52.447Z,0.0
2022-08-22T00:40:23.945Z,0.0
2022-08-22T00:40:54.518Z,0.0
2022-08-22T00:41:25.002Z,0.0
2022-08-22T00:41:55.518Z,0.0
2022-08-22T00:42:39.693Z,0.0
2022-08-22T00:43:10.164Z,0.0
2022-08-22T00:43:40.648Z,0.0
2022-08-22T00:44:11.112Z,0.0
2022-08-22T00:44:41.575Z,0.0
2022-08-22T00:45:12.078Z,0.0
2022-08-22T00:45:42.555Z,1.3
2022-08-22T00:46:13.041Z,1.3
2022-08-22T00:46:43.530Z,0.5
2022-08-22T00:47:14.048Z,0.0
2022-08-22T00:47:44.527Z,0.0
2022-08-22T00:48:15.043Z,0.0
2022-08-22T00:48:48.354Z,0.0
2022-08-22T00:49:18.857Z,0.0
2022-08-22T00:49:50.074Z,0.0
2022-08-22T00:50:20.554Z,0.0
2022-08-22T00:50:51.025Z,0.0
2022-08-22T00:51:21.520Z,0.0
2022-08-22T00:51:53.280Z,0.5
2022-08-22T00:52:23.744Z,0.0
2022-08-22T00:52:54.245Z,0.0
2022-08-22T00:53:26.770Z,0.0
2022-08-22T00:53:57.235Z,0.0
2022-08-22T00:54:38.097Z,0.0
2022-08-22T00:55:08.600Z,0.0
2022-08-22T00:55:45.165Z,0.0
2022-08-22T00:56:15.672Z,0.0
2022-08-22T00:56:46.155Z,0.0
2022-08-22T00:57:16.655Z,0.0
2022-08-22T00:57:47.153Z,0.0
2022-08-22T00:58:17.798Z,0.0
2022-08-22T00:58:48.303Z,0.0
2022-08-22T00:59:33.912Z,0.0
2022-08-22T01:00:04.388Z,0.0
2022-08-22T01:00:35.295Z,0.0
2022-08-22T01:01:07.269Z,0.0
2022-08-22T01:01:37.942Z,0.0
2022-08-22T01:02:08.458Z,0.0
2022-08-22T01:02:38.979Z,0.0
2022-08-22T01:03:12.829Z,0.0
2022-08-22T01:03:43.325Z,0.2
2022-08-22T01:04:13.820Z,0.0
2022-08-22T01:04:44.313Z,0.0
2022-08-22T01:05:17.786Z,0.0
2022-08-22T01:05:48.272Z,0.0
2022-08-22T01:06:18.759Z,0.0
2022-08-22T01:06:49.320Z,0.0
2022-08-22T01:07:19.798Z,0.0
2022-08-22T01:07:58.939Z,0.0
2022-08-22T01:08:29.533Z,0.0
2022-08-22T01:09:00.048Z,0.5
2022-08-22T01:09:30.535Z,1.3
2022-08-22T01:10:01.007Z,0.5
2022-08-22T01:10:31.486Z,0.0
2022-08-22T01:11:01.954Z,0.0
2022-08-22T01:11:32.425Z,0.0
2022-08-22T01:12:02.888Z,0.0
2022-08-22T01:12:33.367Z,0.0
2022-08-22T01:13:03.841Z,0.0
2022-08-22T01:13:34.571Z,0.0
2022-08-22T01:14:05.045Z,0.0
2022-08-22T01:14:44.912Z,0.0
2022-08-22T01:15:15.419Z,0.0
2022-08-22T01:15:45.902Z,0.0
2022-08-22T01:16:16.389Z,0.2
2022-08-22T01:16:46.878Z,0.0
2022-08-22T01:17:17.378Z,0.0
2022-08-22T01:18:57.930Z,0.0
2022-08-22T01:21:34.190Z,0.0
2022-08-22T01:24:14.794Z,0.0
2022-08-22T01:26:51.864Z,0.0
2022-08-22T01:29:12.901Z,0.0
2022-08-22T01:31:44.789Z,0.0
2022-08-22T01:34:22.992Z,0.0
2022-08-22T01:36:44.387Z,0.0
2022-08-22T01:39:25.039Z,0.0
2022-08-22T01:41:55.645Z,0.0
2022-08-22T01:44:26.248Z,0.0
2022-08-22T01:46:56.834Z,0.0
2022-08-22T01:49:27.430Z,0.0
2022-08-22T01:54:38.198Z,0.0
2022-08-22T01:57:08.806Z,0.0
2022-08-22T01:59:44.325Z,0.0
2022-08-22T02:02:14.921Z,0.0
2022-08-22T02:07:15.659Z,0.0
2022-08-22T02:09:57.564Z,0.0
2022-08-22T02:12:42.287Z,0.0
2022-08-22T02:15:02.878Z,0.0
2022-08-22T02:17:33.480Z,0.0
2022-08-22T02:20:04.065Z,0.0
2022-08-22T02:22:44.902Z,0.0
2022-08-22T02:25:19.458Z,0.0
2022-08-22T02:27:41.818Z,0.0
2022-08-22T02:30:14.150Z,0.0
2022-08-22T02:35:14.909Z,0.0
2022-08-22T02:37:55.621Z,0.0
2022-08-22T02:42:56.463Z,0.0
2022-08-22T02:45:27.059Z,0.0
2022-08-22T02:47:57.762Z,0.0
2022-08-22T02:50:33.048Z,0.0
2022-08-22T02:53:13.766Z,0.0
2022-08-22T02:55:44.394Z,0.0
2022-08-22T02:58:14.980Z,0.0
2022-08-22T03:00:53.356Z,0.0
2022-08-22T03:03:13.963Z,0.0
2022-08-22T03:05:44.604Z,0.0
2022-08-22T03:08:25.208Z,0.0
2022-08-22T03:10:55.803Z,0.0
2022-08-22T03:15:59.788Z,0.0
2022-08-22T03:18:30.398Z,0.0
2022-08-22T03:21:11.005Z,0.0
2022-08-22T03:23:41.634Z,0.0
2022-08-22T03:26:17.682Z,0.0
2022-08-22T03:28:38.257Z,0.0
2022-08-22T03:31:06.665Z,0.0
2022-08-22T03:33:47.257Z,0.0
2022-08-22T03:36:27.848Z,0.0
2022-08-22T03:38:58.455Z,0.0
2022-08-22T03:41:29.061Z,0.0
2022-08-22T03:43:59.649Z,0.0
2022-08-22T03:46:30.221Z,0.0
2022-08-22T03:49:00.819Z,0.0
2022-08-22T03:51:41.427Z,0.0
2022-08-22T03:56:42.154Z,0.0
2022-08-22T03:59:20.124Z,0.0
2022-08-22T04:01:42.751Z,0.0
2022-08-22T04:06:53.697Z,0.0
2022-08-22T04:09:28.537Z,0.0
2022-08-22T04:11:49.704Z,0.0
2022-08-22T04:14:20.311Z,0.0
2022-08-22T04:16:50.917Z,0.0
2022-08-22T04:22:11.669Z,0.0
2022-08-22T04:24:42.275Z,0.0
2022-08-22T04:27:12.898Z,0.0
2022-08-22T04:29:43.521Z,0.0
2022-08-22T04:32:14.729Z,0.0
2022-08-22T04:37:25.583Z,0.0
2022-08-22T04:39:56.306Z,0.0
2022-08-22T04:42:51.560Z,0.0
2022-08-22T04:44:52.113Z,0.0
2022-08-22T04:47:22.737Z,0.0
2022-08-22T04:50:03.334Z,0.0
2022-08-22T04:52:39.773Z,0.0
2022-08-22T04:55:10.379Z,0.0
2022-08-22T04:57:40.946Z,0.0
2022-08-22T05:00:11.566Z,0.0
2022-08-22T05:02:54.408Z,0.0
2022-08-22T05:05:23.360Z,0.0
2022-08-22T05:07:56.453Z,0.0
2022-08-22T05:10:22.544Z,0.0
2022-08-22T05:12:54.791Z,0.0
2022-08-22T05:18:05.659Z,0.0
2022-08-22T05:20:36.238Z,0.0
2022-08-22T05:23:06.824Z,0.0
2022-08-22T05:25:38.109Z,0.0
2022-08-22T05:28:11.564Z,0.0
2022-08-22T05:30:42.168Z,0.0
2022-08-22T05:33:22.740Z,0.0
2022-08-22T05:35:59.326Z,0.0
2022-08-22T05:38:20.185Z,0.0
2022-08-22T05:40:50.796Z,0.0
2022-08-22T05:43:21.432Z,0.0
2022-08-22T05:45:52.016Z,0.0
2022-08-22T05:48:32.608Z,0.0
2022-08-22T05:51:03.399Z,0.8
2022-08-22T05:53:34.036Z,0.0
2022-08-22T05:58:34.795Z,0.0
2022-08-22T06:01:05.385Z,0.0
2022-08-22T06:03:46.015Z,0.0
2022-08-22T06:06:18.375Z,0.0
2022-08-22T06:08:49.000Z,0.0
2022-08-22T06:11:19.617Z,0.0
2022-08-22T06:13:57.360Z,0.0
2022-08-22T06:16:29.668Z,0.0
2022-08-22T06:19:00.287Z,0.0
2022-08-22T06:21:35.076Z,0.0
2022-08-22T06:23:59.784Z,0.0
2022-08-22T06:26:41.461Z,0.2
2022-08-22T06:29:15.930Z,0.0
2022-08-22T06:31:46.533Z,0.2
2022-08-22T06:34:17.137Z,0.0
2022-08-22T06:39:17.906Z,0.0
2022-08-22T06:41:48.501Z,0.0
2022-08-22T06:44:19.096Z,0.0
2022-08-22T06:46:59.676Z,0.0
2022-08-22T06:49:30.272Z,0.0
2022-08-22T06:52:00.869Z,0.2
2022-08-22T06:54:34.217Z,0.0
2022-08-22T06:57:04.976Z,0.5
2022-08-22T06:59:35.593Z,1.1
2022-08-22T07:02:16.474Z,0.0
2022-08-22T07:04:47.110Z,0.8
2022-08-22T07:07:17.697Z,0.5
2022-08-22T07:09:48.311Z,0.2
2022-08-22T07:12:18.895Z,0.8
2022-08-22T07:14:49.501Z,0.0
2022-08-22T07:20:00.237Z,1.3
2022-08-22T07:22:30.828Z,2.2
2022-08-22T07:25:01.441Z,0.8
2022-08-22T07:27:32.036Z,2.2
2022-08-22T07:30:14.206Z,1.3
2022-08-22T07:32:45.752Z,1.1
2022-08-22T07:35:16.359Z,1.3
2022-08-22T07:37:46.962Z,1.3
2022-08-22T07:40:17.715Z,1.9
2022-08-22T07:42:50.665Z,3.0
2022-08-22T07:45:31.273Z,4.1
2022-08-22T07:48:01.943Z,3.0
2022-08-22T07:50:32.609Z,3.0
2022-08-22T07:53:03.215Z,2.2
2022-08-22T07:55:33.824Z,1.3
2022-08-22T08:00:42.960Z,2.7
2022-08-22T08:03:13.570Z,3.8
2022-08-22T08:05:44.208Z,3.0
2022-08-22T08:08:15.628Z,5.2
2022-08-22T08:10:46.495Z,4.4
2022-08-22T08:13:27.090Z,3.3
2022-08-22T08:15:57.669Z,4.1
2022-08-22T08:18:28.285Z,3.6
2022-08-22T08:20:58.880Z,5.8
2022-08-22T08:23:36.792Z,4.1
2022-08-22T08:26:03.626Z,4.4
2022-08-22T08:28:44.697Z,7.5
2022-08-22T08:31:15.316Z,6.6
2022-08-22T08:33:47.156Z,6.9
2022-08-22T08:36:23.028Z,4.7
2022-08-22T08:41:13.762Z,5.5
2022-08-22T08:43:54.354Z,5.5
2022-08-22T08:46:26.543Z,4.7
2022-08-22T08:48:59.931Z,5.8
2022-08-22T08:51:33.638Z,5.2
2022-08-22T08:53:54.323Z,4.7
2022-08-22T08:56:29.737Z,5.8
2022-08-22T08:59:11.314Z,20.5
2022-08-22T09:01:48.007Z,4.1
2022-08-22T09:04:15.130Z,4.4
2022-08-22T09:06:50.735Z,5.0
2022-08-22T09:09:18.565Z,4.4
2022-08-22T09:11:49.917Z,5.2
2022-08-22T09:14:20.526Z,3.3
2022-08-22T09:16:57.465Z,4.1
2022-08-22T09:24:33.339Z,5.5
2022-08-22T09:27:08.572Z,3.6
2022-08-22T09:29:51.617Z,5.2
2022-08-22T09:32:13.021Z,2.7
2022-08-22T09:34:46.347Z,2.2
2022-08-22T09:37:08.499Z,4.4
2022-08-22T09:39:44.889Z,3.0
2022-08-22T09:42:22.976Z,4.4
2022-08-22T09:45:00.681Z,2.2
2022-08-22T09:47:24.432Z,4.1
2022-08-22T09:49:57.948Z,18.3
2022-08-22T09:52:44.319Z,3.8
2022-08-22T09:55:08.683Z,14.1
2022-08-22T09:57:42.886Z,3.6
2022-08-22T10:02:43.838Z,1.6
2022-08-22T10:05:35.112Z,3.0
2022-08-22T10:07:41.630Z,4.1
2022-08-22T10:10:23.115Z,3.6
2022-08-22T10:12:59.147Z,4.1
2022-08-22T10:15:21.871Z,2.7
2022-08-22T10:17:52.502Z,3.3
2022-08-22T10:20:23.180Z,3.6
2022-08-22T10:22:54.833Z,2.7
2022-08-22T10:25:41.828Z,3.3
2022-08-22T10:28:03.475Z,3.8
2022-08-22T10:30:37.891Z,3.0
2022-08-22T10:33:12.049Z,2.2
2022-08-22T10:35:45.965Z,0.5
2022-08-22T10:38:11.012Z,1.9
2022-08-22T10:43:29.046Z,3.3
2022-08-22T10:45:56.799Z,3.0
2022-08-22T10:48:30.508Z,2.5
2022-08-22T10:50:53.262Z,3.3
2022-08-22T10:53:28.270Z,1.3
2022-08-22T10:56:10.356Z,1.1
2022-08-22T10:58:44.043Z,0.5
2022-08-22T11:01:38.692Z,3.6
2022-08-22T11:03:47.926Z,4.7
2022-08-22T11:06:11.253Z,4.4
2022-08-22T11:08:45.758Z,1.3
2022-08-22T11:11:17.571Z,3.6
2022-08-22T11:13:53.363Z,4.4
2022-08-22T11:16:24.693Z,1.6
2022-08-22T11:19:14.870Z,1.1
2022-08-22T11:24:17.337Z,3.6
2022-08-22T11:26:46.606Z,5.2
2022-08-22T11:29:23.774Z,4.1
2022-08-22T11:31:36.442Z,3.8
2022-08-22T11:34:08.137Z,1.6
2022-08-22T11:36:47.673Z,1.6
2022-08-22T11:39:28.689Z,3.6
2022-08-22T11:41:52.146Z,2.2
2022-08-22T11:44:25.571Z,1.9
2022-08-22T11:46:46.277Z,0.5
2022-08-22T11:49:31.709Z,2.5
2022-08-22T11:51:54.875Z,2.2
2022-08-22T11:54:42.168Z,2.2
2022-08-22T11:57:05.421Z,0.5
2022-08-22T11:59:40.082Z,5.5
2022-08-22T12:04:34.322Z,4.1
2022-08-22T12:07:07.535Z,4.4
2022-08-22T12:09:50.540Z,4.1
2022-08-22T12:12:28.293Z,1.6
2022-08-22T12:14:52.902Z,1.9
2022-08-22T12:17:19.004Z,0.8
2022-08-22T12:20:22.856Z,1.6
2022-08-22T12:22:39.093Z,1.9
2022-08-22T12:25:04.924Z,21.1
2022-08-22T12:27:39.643Z,2.5
2022-08-22T12:30:13.059Z,2.5
2022-08-22T12:32:37.831Z,5.0
2022-08-22T12:35:13.582Z,6.6
2022-08-22T12:37:52.487Z,6.6
2022-08-22T12:40:14.161Z,2.5
2022-08-22T12:45:19.081Z,5.5
2022-08-22T12:47:52.705Z,4.7
2022-08-22T12:50:23.531Z,4.1
2022-08-22T12:53:04.719Z,5.5
2022-08-22T12:55:28.328Z,4.4
2022-08-22T12:58:00.691Z,4.7
2022-08-22T13:00:33.388Z,3.6
2022-08-22T13:03:03.980Z,4.4
2022-08-22T13:05:56.721Z,7.5
2022-08-22T13:08:15.936Z,4.7
2022-08-22T13:10:48.155Z,4.4
2022-08-22T13:13:29.522Z,4.1
2022-08-22T13:15:53.707Z,7.2
2022-08-22T13:18:40.220Z,3.6
2022-08-22T13:20:55.390Z,4.1
2022-08-22T13:26:01.582Z,3.3
2022-08-22T13:28:32.186Z,15.8
2022-08-22T13:31:04.110Z,9.1
2022-08-22T13:33:35.770Z,6.3
2022-08-22T13:36:16.371Z,4.1
2022-08-22T13:38:56.451Z,1.3
2022-08-22T13:41:18.063Z,3.0
2022-08-22T13:43:50.002Z,1.9
2022-08-22T13:46:22.401Z,1.9
2022-08-22T13:48:49.462Z,0.5
2022-08-22T13:51:31.930Z,2.5
2022-08-22T13:54:22.152Z,2.7
2022-08-22T13:56:35.994Z,2.2
2022-08-22T13:58:57.636Z,2.7
2022-08-22T14:01:28.657Z,2.5
2022-08-22T14:06:58.264Z,2.5
2022-08-22T14:09:09.755Z,1.1
2022-08-22T14:11:42.499Z,0.8
2022-08-22T14:14:13.354Z,1.1
2022-08-22T14:16:46.355Z,2.2
2022-08-22T14:19:27.375Z,3.0
2022-08-22T14:22:01.328Z,2.2
2022-08-22T14:24:25.396Z,2.2
2022-08-22T14:27:08.103Z,3.6
2022-08-22T14:29:29.000Z,1.1
2022-08-22T14:32:02.582Z,1.1
2022-08-22T14:34:45.352Z,0.2
2022-08-22T14:37:16.697Z,2.2
2022-08-22T14:39:52.941Z,1.9
2022-08-22T14:42:21.032Z,3.3
2022-08-22T14:47:34.544Z,3.8
2022-08-22T14:49:57.397Z,2.5
2022-08-22T14:52:29.847Z,4.1
2022-08-22T14:55:06.204Z,1.9
2022-08-22T14:57:31.434Z,1.9
2022-08-22T15:00:03.142Z,1.6
2022-08-22T15:02:34.879Z,1.1
2022-08-22T15:05:15.827Z,0.5
2022-08-22T15:07:47.715Z,1.6
2022-08-22T15:10:13.495Z,0.8
2022-08-22T15:12:41.538Z,0.5
2022-08-22T15:15:12.822Z,1.6
2022-08-22T15:17:54.599Z,3.8
2022-08-22T15:20:26.137Z,1.1
2022-08-22T15:22:58.644Z,1.9
2022-08-22T15:28:05.458Z,4.1
2022-08-22T15:30:31.139Z,3.6
2022-08-22T15:33:12.227Z,2.5
2022-08-22T15:35:43.655Z,1.3
2022-08-22T15:38:14.240Z,2.7
2022-08-22T15:40:40.636Z,1.9
2022-08-22T15:43:12.656Z,3.6
2022-08-22T15:45:44.844Z,3.8
2022-08-22T15:48:25.940Z,2.5
2022-08-22T15:50:56.517Z,2.5
2022-08-22T15:53:27.703Z,3.6
2022-08-22T15:56:04.884Z,3.0
2022-08-22T15:58:25.663Z,0.8
2022-08-22T16:01:04.466Z,2.7
2022-08-22T16:03:40.725Z,2.7
2022-08-22T16:08:43.520Z,3.0
2022-08-22T16:11:14.474Z,1.9
2022-08-22T16:13:48.300Z,1.9
2022-08-22T16:16:18.901Z,2.7
2022-08-22T16:21:19.640Z,1.6
2022-08-22T16:23:50.228Z,1.1
2022-08-22T16:26:20.838Z,1.6
2022-08-22T16:29:18.217Z,1.9
2022-08-22T16:31:38.956Z,1.3
2022-08-22T16:34:09.563Z,1.9
2022-08-22T16:36:40.151Z,0.0
2022-08-22T16:39:10.750Z,0.2
2022-08-22T16:41:43.081Z,0.0
2022-08-22T16:44:15.557Z,1.1
2022-08-22T16:49:17.506Z,0.5
2022-08-22T16:51:48.098Z,0.5
2022-08-22T16:54:18.719Z,1.1
2022-08-22T16:56:49.316Z,0.2
2022-08-22T16:59:48.489Z,0.0
2022-08-22T17:02:10.674Z,0.0
2022-08-22T17:04:41.296Z,1.1
2022-08-22T17:07:11.900Z,0.5
2022-08-22T17:09:42.524Z,0.8
2022-08-22T17:12:13.090Z,1.6
2022-08-22T17:14:53.927Z,1.3
2022-08-22T17:17:24.533Z,0.8
2022-08-22T17:19:56.258Z,0.8
2022-08-22T17:22:28.968Z,1.9
2022-08-22T17:24:53.966Z,1.6
2022-08-22T17:30:04.726Z,1.6
2022-08-22T17:32:35.327Z,0.8
2022-08-22T17:35:06.630Z,3.3
2022-08-22T17:37:37.209Z,1.6
2022-08-22T17:40:10.776Z,0.5
2022-08-22T17:42:41.750Z,2.2
2022-08-22T17:45:25.815Z,0.2
2022-08-22T17:47:48.168Z,0.2
2022-08-22T17:50:18.790Z,1.3
2022-08-22T17:52:49.399Z,1.3
2022-08-22T17:55:20.035Z,0.8
2022-08-22T17:57:50.636Z,1.9
2022-08-22T18:00:31.230Z,0.5
2022-08-22T18:03:01.836Z,0.2
2022-08-22T18:05:32.433Z,1.1
2022-08-22T18:10:33.614Z,0.0
2022-08-22T18:13:17.537Z,1.1
2022-08-22T18:15:48.148Z,0.5
2022-08-22T18:18:19.036Z,1.1
2022-08-22T18:20:49.659Z,0.5
2022-08-22T18:23:35.753Z,0.2
2022-08-22T18:25:50.675Z,0.5
2022-08-22T18:28:31.927Z,0.0
2022-08-22T18:31:03.372Z,0.0
2022-08-22T18:33:34.961Z,0.0
2022-08-22T18:36:10.290Z,0.0
2022-08-22T18:38:40.052Z,0.0
2022-08-22T18:41:10.828Z,0.0
2022-08-22T18:43:51.459Z,0.0
2022-08-22T18:46:24.453Z,0.0
2022-08-22T18:51:15.178Z,0.0
2022-08-22T18:53:45.801Z,0.0
2022-08-22T18:56:16.402Z,0.0
2022-08-22T18:59:06.403Z,0.0
2022-08-22T19:01:31.144Z,0.0
2022-08-22T19:04:05.387Z,0.0
2022-08-22T19:06:36.834Z,0.0
2022-08-22T19:09:13.303Z,0.0
2022-08-22T19:11:47.305Z,0.0
2022-08-22T19:14:17.888Z,0.0
2022-08-22T19:16:48.492Z,0.0
2022-08-22T19:19:27.394Z,0.0
2022-08-22T19:21:48.194Z,0.8
2022-08-22T19:24:18.799Z,0.2
2022-08-22T19:26:59.395Z,0.0
2022-08-22T19:32:00.646Z,0.5
2022-08-22T19:34:31.529Z,0.0
2022-08-22T19:37:02.135Z,0.8
2022-08-22T19:39:35.903Z,0.8
2022-08-22T19:42:24.347Z,0.5
2022-08-22T19:44:45.723Z,0.0
2022-08-22T19:47:16.310Z,0.0
2022-08-22T19:49:47.016Z,0.0
2022-08-22T19:52:17.722Z,0.0
2022-08-22T19:54:48.349Z,0.0
2022-08-22T19:57:30.605Z,0.0
2022-08-22T20:00:10.939Z,0.0
2022-08-22T20:02:32.273Z,0.0
2022-08-22T20:05:02.901Z,0.0
2022-08-22T20:07:35.331Z,0.2
2022-08-22T20:12:46.049Z,0.0
2022-08-22T20:15:16.626Z,0.0
2022-08-22T20:18:11.481Z,0.2
2022-08-22T20:20:46.077Z,0.8
2022-08-22T20:22:46.649Z,0.2
2022-08-22T20:25:59.044Z,1.1
2022-08-22T20:27:59.687Z,1.1
2022-08-22T20:30:34.478Z,0.0
2022-08-22T20:32:55.099Z,0.0
2022-08-22T20:35:27.202Z,0.0
2022-08-22T20:38:23.473Z,0.0
2022-08-22T20:41:21.444Z,0.0
2022-08-22T20:43:20.542Z,0.0
2022-08-22T20:45:48.037Z,0.0
2022-08-22T20:48:10.913Z,0.0
2022-08-22T20:53:19.546Z,0.0
2022-08-22T20:56:00.182Z,0.0
2022-08-22T20:58:30.779Z,0.0
2022-08-22T21:00:55.250Z,0.0
2022-08-22T21:03:25.859Z,0.0
2022-08-22T21:05:56.480Z,0.0
2022-08-22T21:08:37.713Z,0.0
2022-08-22T21:11:08.388Z,0.0
2022-08-22T21:13:39.001Z,0.0
2022-08-22T21:16:09.591Z,0.0
2022-08-22T21:18:40.217Z,0.0
2022-08-22T21:21:12.784Z,0.0
2022-08-22T21:24:00.684Z,0.0
2022-08-22T21:26:21.572Z,0.0
2022-08-22T21:28:52.160Z,0.0
2022-08-22T21:33:52.905Z,0.0
2022-08-22T21:36:23.496Z,0.0
2022-08-22T21:39:14.138Z,0.0
2022-08-22T21:41:44.746Z,0.0
2022-08-22T21:44:15.372Z,0.0
2022-08-22T21:46:46.729Z,0.0
2022-08-22T21:49:07.309Z,0.0
2022-08-22T21:51:37.870Z,0.0
2022-08-22T21:54:39.676Z,0.0
2022-08-22T21:56:50.249Z,0.0
2022-08-22T21:59:24.782Z,0.0
2022-08-22T22:01:56.069Z,0.0
2022-08-22T22:04:27.350Z,0.0
2022-08-22T22:07:08.950Z,0.0
2022-08-22T22:09:39.584Z,0.0
2022-08-22T22:14:37.841Z,0.0
2022-08-22T22:17:08.393Z,0.0
2022-08-22T22:19:39.002Z,0.0
2022-08-22T22:22:19.612Z,0.0
2022-08-22T22:24:50.217Z,0.0
2022-08-22T22:27:26.546Z,0.0
2022-08-22T22:29:57.162Z,0.0
2022-08-22T22:32:27.762Z,0.0
2022-08-22T22:34:58.360Z,0.0
2022-08-22T22:37:41.535Z,0.0
2022-08-22T22:40:17.549Z,0.0
2022-08-22T22:42:38.188Z,0.0
2022-08-22T22:45:08.769Z,0.0
2022-08-22T22:47:39.357Z,0.0
2022-08-22T22:50:09.934Z,0.0
2022-08-22T22:55:24.068Z,0.8
2022-08-22T22:58:08.988Z,0.2
2022-08-22T23:00:20.982Z,0.0
2022-08-22T23:02:54.140Z,0.0
2022-08-22T23:05:34.762Z,0.0
2022-08-22T23:08:05.553Z,0.0
2022-08-22T23:10:42.114Z,0.0
2022-08-22T23:13:02.687Z,0.0
2022-08-22T23:15:43.295Z,0.0
2022-08-22T23:18:13.899Z,0.0
2022-08-22T23:20:54.534Z,0.0
2022-08-22T23:23:25.211Z,0.0
2022-08-22T23:28:25.957Z,0.0
2022-08-22T23:30:56.563Z,0.0
2022-08-22T23:36:10.211Z,0.0
2022-08-22T23:38:32.185Z,0.0
2022-08-22T23:41:04.663Z,0.0
2022-08-22T23:43:37.269Z,0.0
2022-08-22T23:46:07.873Z,0.0
2022-08-22T23:48:38.468Z,0.0
2022-08-22T23:51:22.223Z,0.0
2022-08-22T23:53:53.600Z,0.0
2022-08-22T23:56:29.754Z,0.0
2022-08-22T23:58:53.221Z,0.0
